Time;durP1;ratioP1;P1;durP2;ratioP2;P2;SDS_P1;SDS_P2;PMS_P1;PMS_P2;Temp;Humidity;BMP_temperature;BMP_pressure;BME280_temperature;BME280_humidity;BME280_pressure;Samples;Min_cycle;Max_cycle;Signal;HPM_P1;HPM_P2
2024/01/14 00:01:30;;;;;;;107.88;33.03;;;;;;;;;;4959327;29;20044;-60
2024/01/14 00:03:55;;;;;;;110.97;33.57;;;;;;;;;;4970129;29;20046;-59
2024/01/14 00:06:22;;;;;;;107.60;31.10;;;;;;;;;;4958309;29;20286;-59
2024/01/14 00:08:47;;;;;;;116.60;34.05;;;;;;;;;;4958078;29;20036;-59
2024/01/14 00:11:12;;;;;;;141.00;34.50;;;;;;;;;;4959283;29;20033;-60
2024/01/14 00:13:38;;;;;;;113.77;33.00;;;;;;;;;;4965341;29;20028;-59
2024/01/14 00:16:05;;;;;;;120.93;32.25;;;;;;;;;;4959379;29;20491;-60
2024/01/14 00:18:30;;;;;;;132.00;34.40;;;;;;;;;;4959591;29;20027;-60
2024/01/14 00:20:56;;;;;;;120.83;33.57;;;;;;;;;;4959024;29;20119;-60
2024/01/14 00:23:21;;;;;;;131.20;38.97;;;;;;;;;;4965305;29;20265;-60
2024/01/14 00:25:47;;;;;;;115.20;33.20;;;;;;;;;;4958950;29;20032;-60
2024/01/14 00:28:12;;;;;;;134.57;38.50;;;;;;;;;;4962733;29;20290;-59
2024/01/14 00:30:38;;;;;;;131.60;37.03;;;;;;;;;;4941970;29;20055;-60
2024/01/14 00:33:03;;;;;;;129.60;38.55;;;;;;;;;;4960147;29;20034;-60
2024/01/14 00:35:29;;;;;;;133.33;38.00;;;;;;;;;;4954149;29;20043;-59
2024/01/14 00:37:54;;;;;;;120.70;40.93;;;;;;;;;;4958304;29;20278;-60
2024/01/14 00:40:20;;;;;;;116.03;35.67;;;;;;;;;;4958559;29;20095;-59
2024/01/14 00:42:45;;;;;;;119.50;34.50;;;;;;;;;;4960022;29;20278;-58
2024/01/14 00:45:11;;;;;;;129.30;36.90;;;;;;;;;;4967018;29;20095;-60
2024/01/14 00:47:36;;;;;;;114.85;36.70;;;;;;;;;;4950276;29;20035;-59
2024/01/14 00:50:02;;;;;;;125.87;34.90;;;;;;;;;;4958656;29;20040;-60
2024/01/14 00:52:27;;;;;;;95.53;27.63;;;;;;;;;;4959245;29;20042;-59
2024/01/14 00:54:52;;;;;;;119.67;33.60;;;;;;;;;;4965891;29;20043;-58
2024/01/14 00:57:18;;;;;;;133.10;39.40;;;;;;;;;;4958344;29;20031;-60
2024/01/14 00:59:43;;;;;;;121.40;35.77;;;;;;;;;;4957833;29;20055;-60
2024/01/14 01:02:09;;;;;;;113.50;32.42;;;;;;;;;;4940872;29;20084;-60
2024/01/14 01:04:36;;;;;;;107.15;33.78;;;;;;;;;;4964752;29;20059;-60
2024/01/14 01:07:01;;;;;;;117.40;34.47;;;;;;;;;;4958230;29;20245;-60
2024/01/14 01:09:26;;;;;;;108.37;32.97;;;;;;;;;;4943585;29;20027;-60
2024/01/14 01:11:51;;;;;;;119.07;33.17;;;;;;;;;;4957961;29;20027;-60
2024/01/14 01:14:17;;;;;;;118.72;36.75;;;;;;;;;;4969193;29;20031;-61
2024/01/14 01:16:43;;;;;;;111.83;35.67;;;;;;;;;;4958370;29;20036;-60
2024/01/14 01:19:08;;;;;;;112.50;36.50;;;;;;;;;;4959326;29;20035;-61
2024/01/14 01:21:33;;;;;;;127.10;36.17;;;;;;;;;;4957725;29;20099;-61
2024/01/14 01:23:58;;;;;;;121.17;37.43;;;;;;;;;;4968963;29;20023;-60
2024/01/14 01:26:24;;;;;;;116.60;34.90;;;;;;;;;;4965361;29;20046;-60
2024/01/14 01:28:50;;;;;;;123.13;38.13;;;;;;;;;;4957739;29;20062;-60
2024/01/14 01:31:15;;;;;;;132.07;37.75;;;;;;;;;;4956815;29;20032;-60
2024/01/14 01:33:41;;;;;;;115.78;36.17;;;;;;;;;;4963126;29;20051;-60
2024/01/14 01:36:07;;;;;;;120.30;38.87;;;;;;;;;;4964834;29;20035;-61
2024/01/14 01:38:32;;;;;;;126.55;37.63;;;;;;;;;;4962578;29;20034;-60
2024/01/14 01:40:58;;;;;;;136.17;38.60;;;;;;;;;;4957343;29;20042;-61
2024/01/14 01:43:23;;;;;;;113.57;36.57;;;;;;;;;;4962623;29;20047;-60
2024/01/14 01:45:48;;;;;;;111.00;38.83;;;;;;;;;;4957575;29;20038;-59
2024/01/14 01:48:14;;;;;;;114.07;35.75;;;;;;;;;;4959165;29;20032;-60
2024/01/14 01:50:40;;;;;;;117.63;39.60;;;;;;;;;;4940313;29;20050;-60
2024/01/14 01:53:06;;;;;;;126.77;37.23;;;;;;;;;;4958353;29;20023;-61
2024/01/14 01:55:32;;;;;;;118.57;36.72;;;;;;;;;;4957155;29;20039;-60
2024/01/14 01:57:58;;;;;;;118.05;38.45;;;;;;;;;;4964837;29;20054;-59
2024/01/14 02:00:24;;;;;;;107.97;33.80;;;;;;;;;;4974452;29;20035;-62
2024/01/14 02:02:49;;;;;;;106.20;36.13;;;;;;;;;;4957759;29;20278;-60
2024/01/14 02:05:16;;;;;;;119.63;36.10;;;;;;;;;;4973682;29;20042;-59
2024/01/14 02:07:42;;;;;;;113.85;36.90;;;;;;;;;;4957337;29;20644;-60
2024/01/14 02:10:07;;;;;;;114.67;37.17;;;;;;;;;;4957081;29;20035;-59
2024/01/14 02:12:32;;;;;;;102.20;35.27;;;;;;;;;;4957622;29;20108;-60
2024/01/14 02:14:58;;;;;;;107.63;35.63;;;;;;;;;;4969787;29;20028;-59
2024/01/14 02:17:23;;;;;;;104.80;35.30;;;;;;;;;;4956739;29;20043;-60
2024/01/14 02:19:49;;;;;;;104.30;35.07;;;;;;;;;;4957121;29;20289;-58
2024/01/14 02:22:17;;;;;;;110.40;36.83;;;;;;;;;;4965517;29;20043;-59
2024/01/14 02:24:43;;;;;;;113.45;38.55;;;;;;;;;;4970618;29;20272;-60
2024/01/14 02:27:09;;;;;;;123.00;39.00;;;;;;;;;;4958592;29;20107;-61
2024/01/14 02:29:36;;;;;;;110.07;37.22;;;;;;;;;;4963082;29;20266;-58
2024/01/14 02:32:02;;;;;;;122.03;36.72;;;;;;;;;;4964586;29;20039;-60
2024/01/14 02:34:28;;;;;;;123.88;38.08;;;;;;;;;;4957218;29;20064;-58
2024/01/14 02:36:53;;;;;;;127.40;39.30;;;;;;;;;;4956294;29;20035;-59
2024/01/14 02:39:19;;;;;;;123.40;39.07;;;;;;;;;;4958323;29;20262;-59
2024/01/14 02:41:44;;;;;;;128.60;38.30;;;;;;;;;;4956625;29;20062;-60
2024/01/14 02:44:09;;;;;;;127.30;39.23;;;;;;;;;;4962318;29;20282;-60
2024/01/14 02:46:35;;;;;;;113.72;40.70;;;;;;;;;;4956870;29;20061;-61
2024/01/14 02:49:01;;;;;;;136.00;42.58;;;;;;;;;;4958579;29;20036;-60
2024/01/14 02:51:27;;;;;;;132.77;41.47;;;;;;;;;;4958511;29;20087;-60
2024/01/14 02:53:52;;;;;;;119.57;38.93;;;;;;;;;;4962048;29;20415;-61
2024/01/14 02:56:18;;;;;;;108.97;33.67;;;;;;;;;;4955529;29;20043;-60
2024/01/14 02:58:43;;;;;;;123.70;38.13;;;;;;;;;;4956998;29;20266;-61
2024/01/14 03:01:11;;;;;;;121.93;40.33;;;;;;;;;;4956269;29;20032;-62
2024/01/14 03:03:36;;;;;;;125.32;37.60;;;;;;;;;;4958929;29;20266;-60
2024/01/14 03:06:02;;;;;;;144.23;44.80;;;;;;;;;;4968009;29;20042;-59
2024/01/14 03:08:28;;;;;;;123.88;37.33;;;;;;;;;;4956791;29;20043;-60
2024/01/14 03:10:53;;;;;;;121.47;40.70;;;;;;;;;;4956162;29;20035;-59
2024/01/14 03:13:19;;;;;;;128.33;41.47;;;;;;;;;;4956959;29;20028;-57
2024/01/14 03:15:44;;;;;;;129.70;40.08;;;;;;;;;;4939931;29;20063;-60
2024/01/14 03:18:13;;;;;;;128.80;38.87;;;;;;;;;;4957436;29;20051;-56
2024/01/14 03:20:38;;;;;;;136.57;38.67;;;;;;;;;;4958703;29;20059;-61
2024/01/14 03:23:04;;;;;;;130.17;39.17;;;;;;;;;;4956598;29;20036;-59
2024/01/14 03:25:30;;;;;;;129.07;41.17;;;;;;;;;;4945307;29;20300;-58
2024/01/14 03:27:56;;;;;;;115.38;39.15;;;;;;;;;;4956497;29;20040;-60
2024/01/14 03:30:22;;;;;;;;;;;;;;;;;;4956877;29;20035;-57
2024/01/14 03:32:48;;;;;;;132.93;41.37;;;;;;;;;;4956356;29;19974;-60
2024/01/14 03:35:13;;;;;;;121.13;40.97;;;;;;;;;;4962265;29;20023;-60
2024/01/14 03:37:39;;;;;;;120.93;38.93;;;;;;;;;;4956350;29;20031;-61
2024/01/14 03:40:05;;;;;;;128.48;39.22;;;;;;;;;;4956558;29;20063;-59
2024/01/14 03:42:31;;;;;;;126.18;39.28;;;;;;;;;;4966220;29;20038;-59
2024/01/14 03:44:56;;;;;;;140.47;42.03;;;;;;;;;;4961032;29;20040;-61
2024/01/14 03:47:22;;;;;;;124.07;40.07;;;;;;;;;;4964121;29;20270;-60
2024/01/14 03:49:47;;;;;;;134.60;39.93;;;;;;;;;;4939611;29;20059;-59
2024/01/14 03:52:13;;;;;;;127.67;40.47;;;;;;;;;;4962397;29;20264;-60
2024/01/14 03:54:38;;;;;;;127.77;39.77;;;;;;;;;;4959902;29;20028;-60
2024/01/14 03:57:06;;;;;;;132.48;41.63;;;;;;;;;;4962514;29;20258;-60
2024/01/14 03:59:31;;;;;;;136.18;42.10;;;;;;;;;;4959546;29;20031;-60
2024/01/14 04:01:57;;;;;;;135.73;41.07;;;;;;;;;;4942613;29;20087;-60
2024/01/14 04:04:22;;;;;;;98.57;31.03;;;;;;;;;;4951349;29;20277;-59
2024/01/14 04:06:48;;;;;;;119.43;38.90;;;;;;;;;;4971450;29;20095;-61
2024/01/14 04:09:13;;;;;;;122.93;38.13;;;;;;;;;;4962908;29;20031;-60
2024/01/14 04:11:39;;;;;;;121.93;38.90;;;;;;;;;;4963718;29;20043;-58
2024/01/14 04:14:04;;;;;;;127.50;36.33;;;;;;;;;;4959606;29;20070;-59
2024/01/14 04:16:38;;;;;;;131.73;41.07;;;;;;;;;;4969737;29;20027;-59
2024/01/14 04:19:04;;;;;;;123.20;38.60;;;;;;;;;;4960211;29;20039;-59
2024/01/14 04:21:29;;;;;;;127.47;38.67;;;;;;;;;;4963291;29;20491;-58
2024/01/14 04:23:55;;;;;;;124.37;37.80;;;;;;;;;;4942125;29;20036;-60
2024/01/14 04:26:21;;;;;;;126.60;37.67;;;;;;;;;;4947535;29;20360;-58
2024/01/14 04:28:47;;;;;;;107.40;37.10;;;;;;;;;;4963968;29;20042;-57
2024/01/14 04:31:13;;;;;;;111.53;36.28;;;;;;;;;;4942722;29;20119;-60
2024/01/14 04:33:38;;;;;;;114.50;37.10;;;;;;;;;;4966220;29;20060;-57
2024/01/14 04:36:04;;;;;;;120.93;35.30;;;;;;;;;;4965948;29;20309;-59
2024/01/14 04:38:30;;;;;;;91.30;30.15;;;;;;;;;;4958967;29;20052;-59
2024/01/14 04:40:55;;;;;;;106.93;36.70;;;;;;;;;;4966534;29;20047;-59
2024/01/14 04:43:21;;;;;;;114.13;37.00;;;;;;;;;;4961056;29;20331;-60
2024/01/14 04:45:46;;;;;;;125.63;37.53;;;;;;;;;;4960276;29;20036;-57
2024/01/14 04:48:12;;;;;;;120.45;36.05;;;;;;;;;;4964903;29;20132;-60
2024/01/14 04:50:39;;;;;;;107.57;32.03;;;;;;;;;;4965442;29;20042;-59
2024/01/14 04:53:05;;;;;;;123.82;38.17;;;;;;;;;;4969679;29;20039;-59
2024/01/14 04:55:31;;;;;;;104.93;33.42;;;;;;;;;;4950911;29;20050;-59
2024/01/14 04:57:57;;;;;;;107.30;33.60;;;;;;;;;;4964021;29;20039;-59
2024/01/14 05:00:22;;;;;;;101.07;33.63;;;;;;;;;;4959422;29;20046;-59
2024/01/14 05:02:47;;;;;;;113.15;36.20;;;;;;;;;;4949219;29;20080;-59
2024/01/14 05:05:13;;;;;;;119.93;38.93;;;;;;;;;;4958721;29;20044;-59
2024/01/14 05:07:40;;;;;;;98.70;30.77;;;;;;;;;;4963207;29;20270;-60
2024/01/14 05:10:05;;;;;;;93.05;31.17;;;;;;;;;;4958638;29;20039;-58
2024/01/14 05:12:31;;;;;;;96.25;32.92;;;;;;;;;;4958489;29;20052;-59
2024/01/14 05:14:56;;;;;;;90.17;28.80;;;;;;;;;;4955049;29;20055;-57
2024/01/14 05:17:23;;;;;;;94.03;31.65;;;;;;;;;;4968932;29;20047;-60
2024/01/14 05:19:48;;;;;;;67.13;25.73;;;;;;;;;;4958302;29;20072;-59
2024/01/14 05:22:13;;;;;;;91.30;29.53;;;;;;;;;;4953170;29;20052;-60
2024/01/14 05:24:41;;;;;;;93.10;31.27;;;;;;;;;;4958172;29;20047;-59
2024/01/14 05:27:06;;;;;;;85.55;28.23;;;;;;;;;;4962777;29;20027;-60
2024/01/14 05:29:32;;;;;;;101.03;33.88;;;;;;;;;;4958128;29;20032;-59
2024/01/14 05:31:58;;;;;;;100.20;31.10;;;;;;;;;;4962911;29;20032;-58
2024/01/14 05:34:23;;;;;;;85.80;28.65;;;;;;;;;;4941590;29;20032;-57
2024/01/14 05:36:49;;;;;;;97.25;32.70;;;;;;;;;;4967001;29;20415;-57
2024/01/14 05:39:14;;;;;;;91.47;31.50;;;;;;;;;;4960102;29;20031;-58
2024/01/14 05:41:40;;;;;;;97.63;32.28;;;;;;;;;;4959280;29;20039;-58
2024/01/14 05:44:05;;;;;;;97.30;33.40;;;;;;;;;;4957647;29;20068;-59
2024/01/14 05:46:31;;;;;;;103.43;34.42;;;;;;;;;;4970038;29;20039;-59
2024/01/14 05:48:57;;;;;;;105.97;36.53;;;;;;;;;;4965572;29;20051;-57
2024/01/14 05:51:22;;;;;;;110.10;33.10;;;;;;;;;;4960179;29;20281;-59
2024/01/14 05:53:48;;;;;;;96.80;32.55;;;;;;;;;;4969545;29;20023;-58
2024/01/14 05:56:22;;;;;;;115.17;35.97;;;;;;;;;;4962320;29;20091;-59
2024/01/14 05:58:48;;;;;;;110.38;33.17;;;;;;;;;;4950985;29;20043;-57
2024/01/14 06:01:15;;;;;;;109.17;31.93;;;;;;;;;;4957358;29;20089;-58
2024/01/14 06:03:40;;;;;;;110.32;33.60;;;;;;;;;;4957253;29;20300;-58
2024/01/14 06:06:06;;;;;;;100.67;30.83;;;;;;;;;;4958156;29;20028;-59
2024/01/14 06:08:31;;;;;;;83.18;26.90;;;;;;;;;;4960593;29;20116;-59
2024/01/14 06:10:57;;;;;;;103.28;32.83;;;;;;;;;;4957155;29;20046;-60
2024/01/14 06:13:22;;;;;;;95.90;29.80;;;;;;;;;;4957600;29;20039;-58
2024/01/14 06:15:48;;;;;;;76.00;26.88;;;;;;;;;;4956970;29;20055;-59
2024/01/14 06:18:13;;;;;;;105.90;31.27;;;;;;;;;;4961006;28;20055;-61
2024/01/14 06:20:39;;;;;;;99.00;32.20;;;;;;;;;;4955869;29;20293;-58
2024/01/14 06:23:04;;;;;;;107.37;31.33;;;;;;;;;;4957096;29;20062;-59
2024/01/14 06:25:30;;;;;;;115.35;34.25;;;;;;;;;;4966752;29;20123;-61
2024/01/14 06:27:55;;;;;;;100.32;34.22;;;;;;;;;;4965077;29;20101;-59
2024/01/14 06:30:21;;;;;;;108.30;32.40;;;;;;;;;;4958804;29;20036;-59
2024/01/14 06:32:47;;;;;;;110.50;35.80;;;;;;;;;;4956821;29;20028;-57
2024/01/14 06:35:12;;;;;;;112.53;36.83;;;;;;;;;;4923913;29;20039;-60
2024/01/14 06:37:38;;;;;;;105.72;33.85;;;;;;;;;;4961402;29;20079;-58
2024/01/14 06:40:05;;;;;;;108.72;34.65;;;;;;;;;;4960068;29;20099;-57
2024/01/14 06:42:30;;;;;;;110.72;33.72;;;;;;;;;;4962459;29;20028;-59
2024/01/14 06:44:56;;;;;;;115.80;34.47;;;;;;;;;;4956234;29;20063;-59
2024/01/14 06:47:21;;;;;;;109.67;32.43;;;;;;;;;;4960040;29;20050;-58
2024/01/14 06:49:47;;;;;;;103.33;33.53;;;;;;;;;;4962322;29;20031;-60
2024/01/14 06:52:13;;;;;;;101.37;33.30;;;;;;;;;;4957815;29;20285;-58
2024/01/14 06:54:38;;;;;;;121.07;36.53;;;;;;;;;;4956313;29;20040;-57
2024/01/14 06:57:04;;;;;;;104.17;34.80;;;;;;;;;;4954126;29;20265;-58
2024/01/14 06:59:29;;;;;;;93.97;32.90;;;;;;;;;;4956465;29;20040;-61
2024/01/14 07:01:55;;;;;;;113.88;38.10;;;;;;;;;;4960190;29;20103;-59
2024/01/14 07:04:20;;;;;;;106.80;33.27;;;;;;;;;;4946345;29;20036;-58
2024/01/14 07:06:46;;;;;;;107.37;36.67;;;;;;;;;;4940147;29;20063;-60
2024/01/14 07:09:12;;;;;;;107.10;31.90;;;;;;;;;;4943647;29;20040;-58
2024/01/14 07:11:38;;;;;;;95.05;30.95;;;;;;;;;;4957153;29;20039;-60
2024/01/14 07:14:03;;;;;;;93.63;29.93;;;;;;;;;;4965079;29;20028;-59
2024/01/14 07:16:29;;;;;;;106.10;32.53;;;;;;;;;;4965613;29;20330;-59
2024/01/14 07:18:54;;;;;;;102.43;33.13;;;;;;;;;;4963195;29;20467;-59
2024/01/14 07:21:22;;;;;;;108.23;34.70;;;;;;;;;;4950309;29;20072;-59
2024/01/14 07:23:47;;;;;;;103.30;32.58;;;;;;;;;;4956819;29;20043;-58
2024/01/14 07:26:17;;;;;;;108.65;33.15;;;;;;;;;;4956133;29;20107;-58
2024/01/14 07:28:43;;;;;;;105.18;35.00;;;;;;;;;;4960214;29;20051;-59
2024/01/14 07:31:09;;;;;;;101.97;30.97;;;;;;;;;;4968752;29;20070;-60
2024/01/14 07:33:35;;;;;;;105.43;34.83;;;;;;;;;;4961539;29;20733;-61
2024/01/14 07:36:00;;;;;;;94.30;33.10;;;;;;;;;;4970215;29;20023;-56
2024/01/14 07:38:25;;;;;;;89.00;29.77;;;;;;;;;;4943955;29;20043;-60
2024/01/14 07:40:51;;;;;;;101.53;32.53;;;;;;;;;;4959997;29;20289;-61
2024/01/14 07:43:17;;;;;;;93.43;31.87;;;;;;;;;;4965173;29;20274;-59
2024/01/14 07:45:43;;;;;;;103.35;32.83;;;;;;;;;;4959373;29;20027;-59
2024/01/14 07:48:08;;;;;;;116.47;36.93;;;;;;;;;;4964607;29;20036;-59
2024/01/14 07:50:34;;;;;;;104.53;34.80;;;;;;;;;;4967391;29;20100;-59
2024/01/14 07:52:59;;;;;;;105.27;36.10;;;;;;;;;;4961689;29;20031;-58
2024/01/14 07:55:24;;;;;;;114.83;35.33;;;;;;;;;;4962611;29;20027;-57
2024/01/14 07:57:49;;;;;;;103.23;35.60;;;;;;;;;;4964950;29;20054;-58
2024/01/14 08:00:16;;;;;;;97.70;31.13;;;;;;;;;;4960832;29;20039;-58
2024/01/14 08:02:42;;;;;;;91.25;30.88;;;;;;;;;;4959463;29;20036;-59
2024/01/14 08:05:11;;;;;;;104.38;33.33;;;;;;;;;;4959245;29;20075;-59
2024/01/14 08:07:36;;;;;;;110.70;34.75;;;;;;;;;;4960156;29;20055;-60
2024/01/14 08:10:01;;;;;;;101.83;33.40;;;;;;;;;;4963516;29;20043;-59
2024/01/14 08:12:27;;;;;;;104.60;34.03;;;;;;;;;;4942438;29;20055;-58
2024/01/14 08:14:52;;;;;;;105.83;32.93;;;;;;;;;;4959038;29;20040;-59
2024/01/14 08:17:18;;;;;;;101.10;31.87;;;;;;;;;;4958752;29;20262;-58
2024/01/14 08:19:44;;;;;;;95.03;34.25;;;;;;;;;;4964578;29;20099;-60
2024/01/14 08:22:09;;;;;;;99.15;32.03;;;;;;;;;;4959135;29;20067;-59
2024/01/14 08:24:35;;;;;;;92.65;31.73;;;;;;;;;;4959195;29;20035;-57
2024/01/14 08:27:01;;;;;;;102.27;33.97;;;;;;;;;;4958472;29;20035;-58
2024/01/14 08:29:26;;;;;;;103.18;30.60;;;;;;;;;;4970421;29;20053;-58
2024/01/14 08:31:52;;;;;;;98.53;28.93;;;;;;;;;;4944519;29;20040;-59
2024/01/14 08:34:17;;;;;;;96.97;32.50;;;;;;;;;;4958004;29;20042;-60
2024/01/14 08:36:43;;;;;;;93.27;29.10;;;;;;;;;;4963939;29;20265;-60
2024/01/14 08:39:08;;;;;;;105.10;33.78;;;;;;;;;;4961858;29;20032;-59
2024/01/14 08:41:34;;;;;;;95.57;31.37;;;;;;;;;;4941832;29;20066;-60
2024/01/14 08:44:04;;;;;;;95.73;32.43;;;;;;;;;;4958790;29;20040;-59
2024/01/14 08:46:29;;;;;;;91.68;29.50;;;;;;;;;;4958354;29;20066;-57
2024/01/14 08:48:55;;;;;;;88.15;30.00;;;;;;;;;;4964723;29;20038;-61
2024/01/14 08:51:21;;;;;;;76.53;27.67;;;;;;;;;;4943327;29;20028;-60
2024/01/14 08:53:46;;;;;;;79.97;27.33;;;;;;;;;;4965075;29;20055;-58
2024/01/14 08:56:12;;;;;;;78.37;27.50;;;;;;;;;;4960201;29;20270;-58
2024/01/14 08:58:37;;;;;;;79.80;27.08;;;;;;;;;;4961965;29;20073;-60
2024/01/14 09:01:03;;;;;;;81.00;27.03;;;;;;;;;;4961634;29;20063;-57
2024/01/14 09:03:28;;;;;;;81.90;28.93;;;;;;;;;;4961284;29;20265;-59
2024/01/14 09:05:54;;;;;;;93.60;32.53;;;;;;;;;;4958755;29;20031;-58
2024/01/14 09:08:19;;;;;;;87.80;30.63;;;;;;;;;;4958031;29;20043;-59
2024/01/14 09:10:47;;;;;;;98.70;31.93;;;;;;;;;;4949681;29;20209;-59
2024/01/14 09:13:12;;;;;;;94.40;32.28;;;;;;;;;;4958354;29;20035;-56
2024/01/14 09:15:37;;;;;;;88.55;28.90;;;;;;;;;;4958115;29;20095;-61
2024/01/14 09:18:03;;;;;;;87.53;28.33;;;;;;;;;;4957904;29;20026;-58
2024/01/14 09:20:28;;;;;;;95.57;34.40;;;;;;;;;;4963337;29;20274;-58
2024/01/14 09:22:54;;;;;;;109.63;32.37;;;;;;;;;;4957773;29;20035;-57
2024/01/14 09:25:19;;;;;;;103.97;33.97;;;;;;;;;;4970017;29;20035;-59
2024/01/14 09:27:45;;;;;;;93.67;30.37;;;;;;;;;;4957448;29;20036;-60
2024/01/14 09:30:12;;;;;;;90.53;29.03;;;;;;;;;;4944725;29;20321;-58
2024/01/14 09:32:37;;;;;;;101.10;32.38;;;;;;;;;;4948135;29;20031;-62
2024/01/14 09:35:04;;;;;;;91.50;33.10;;;;;;;;;;4957740;29;20036;-57
2024/01/14 09:37:29;;;;;;;113.07;35.22;;;;;;;;;;4963151;29;20281;-57
2024/01/14 09:39:55;;;;;;;116.33;34.57;;;;;;;;;;4972162;29;20206;-58
2024/01/14 09:42:25;;;;;;;99.33;32.60;;;;;;;;;;4960805;29;20055;-59
2024/01/14 09:44:57;;;;;;;99.80;33.28;;;;;;;;;;4962592;29;20273;-59
2024/01/14 09:47:23;;;;;;;121.00;37.60;;;;;;;;;;4940022;29;20100;-58
2024/01/14 09:49:49;;;;;;;127.40;39.30;;;;;;;;;;4962453;29;20038;-56
2024/01/14 09:52:15;;;;;;;112.53;36.80;;;;;;;;;;4939944;29;20028;-57
2024/01/14 09:54:40;;;;;;;124.13;33.95;;;;;;;;;;4962825;29;20041;-56
2024/01/14 09:57:11;;;;;;;116.67;37.77;;;;;;;;;;4956759;29;20034;-58
2024/01/14 09:59:37;;;;;;;117.63;37.13;;;;;;;;;;4961684;29;20038;-59
2024/01/14 10:02:03;;;;;;;103.60;32.92;;;;;;;;;;4960401;29;20091;-60
2024/01/14 10:04:29;;;;;;;107.15;34.53;;;;;;;;;;4929614;29;20036;-59
2024/01/14 10:06:56;;;;;;;123.38;36.25;;;;;;;;;;4967196;29;20083;-59
2024/01/14 10:09:23;;;;;;;125.68;40.17;;;;;;;;;;4959471;29;20051;-58
2024/01/14 10:11:49;;;;;;;120.78;39.42;;;;;;;;;;4965850;29;20032;-56
2024/01/14 10:14:15;;;;;;;133.33;39.00;;;;;;;;;;4958808;29;20046;-59
2024/01/14 10:16:41;;;;;;;124.73;37.63;;;;;;;;;;4964513;29;20020;-59
2024/01/14 10:19:07;;;;;;;121.33;38.73;;;;;;;;;;4941580;29;20285;-59
2024/01/14 10:21:32;;;;;;;118.10;38.08;;;;;;;;;;4964770;29;20495;-60
2024/01/14 10:23:59;;;;;;;122.78;37.97;;;;;;;;;;4958079;29;20062;-60
2024/01/14 10:26:24;;;;;;;118.30;35.97;;;;;;;;;;4963164;29;20055;-60
2024/01/14 10:28:51;;;;;;;117.03;36.87;;;;;;;;;;4956479;29;20067;-60
2024/01/14 10:31:16;;;;;;;110.43;34.65;;;;;;;;;;4957740;29;20321;-58
2024/01/14 10:33:44;;;;;;;118.07;35.50;;;;;;;;;;4956953;29;20023;-60
2024/01/14 10:36:09;;;;;;;122.35;37.75;;;;;;;;;;4952184;29;20031;-59
2024/01/14 10:38:35;;;;;;;122.23;37.40;;;;;;;;;;4957666;29;20055;-61
2024/01/14 10:41:00;;;;;;;120.63;36.00;;;;;;;;;;4955541;29;20028;-61
2024/01/14 10:43:26;;;;;;;117.07;36.75;;;;;;;;;;4967206;29;20027;-57
2024/01/14 10:45:52;;;;;;;114.95;35.13;;;;;;;;;;4956806;29;20055;-60
2024/01/14 10:48:28;;;;;;;123.83;33.30;;;;;;;;;;4956640;29;20043;-59
2024/01/14 10:50:55;;;;;;;98.13;31.80;;;;;;;;;;4963322;29;20299;-59
2024/01/14 10:53:23;;;;;;;97.60;30.63;;;;;;;;;;4963785;29;20063;-61
2024/01/14 10:55:51;;;;;;;101.20;30.90;;;;;;;;;;4956509;29;20095;-60
2024/01/14 10:58:25;;;;;;;100.65;32.30;;;;;;;;;;4956095;29;20012;-58
2024/01/14 11:00:52;;;;;;;96.53;31.45;;;;;;;;;;4963121;29;20046;-57
2024/01/14 11:03:17;;;;;;;95.80;29.77;;;;;;;;;;4957249;29;20040;-59
2024/01/14 11:05:42;;;;;;;102.03;30.23;;;;;;;;;;4960592;29;20050;-61
2024/01/14 11:08:11;;;;;;;98.25;29.77;;;;;;;;;;4947897;29;20514;-61
2024/01/14 11:10:38;;;;;;;91.95;27.73;;;;;;;;;;4965444;29;20039;-61
2024/01/14 11:13:10;;;;;;;91.43;28.65;;;;;;;;;;4954966;29;20012;-60
2024/01/14 11:15:39;;;;;;;97.72;28.63;;;;;;;;;;4963769;29;20066;-58
2024/01/14 11:18:09;;;;;;;89.28;29.92;;;;;;;;;;4952620;29;20079;-59
2024/01/14 11:20:36;;;;;;;88.55;28.48;;;;;;;;;;4961925;29;20063;-61
2024/01/14 11:23:01;;;;;;;72.68;25.15;;;;;;;;;;4967550;29;20043;-60
2024/01/14 11:25:34;;;;;;;76.90;29.30;;;;;;;;;;4963675;29;20031;-58
2024/01/14 11:28:00;;;;;;;78.10;25.77;;;;;;;;;;4967755;29;20268;-59
2024/01/14 11:30:46;;;;;;;82.05;27.48;;;;;;;;;;4943123;29;20414;-60
2024/01/14 11:33:31;;;;;;;84.18;26.30;;;;;;;;;;4963323;29;20032;-61
2024/01/14 11:35:57;;;;;;;82.03;26.25;;;;;;;;;;4966328;29;20027;-60
2024/01/14 11:38:35;;;;;;;89.80;28.45;;;;;;;;;;4975458;29;20067;-59
2024/01/14 11:41:21;;;;;;;79.75;25.75;;;;;;;;;;4956174;29;20098;-60
2024/01/14 11:43:46;;;;;;;81.65;27.67;;;;;;;;;;4950622;29;20117;-59
2024/01/14 11:46:30;;;;;;;88.60;28.63;;;;;;;;;;4942840;29;20040;-60
2024/01/14 11:48:55;;;;;;;82.53;27.10;;;;;;;;;;4951357;29;20055;-58
2024/01/14 11:51:21;;;;;;;81.00;25.23;;;;;;;;;;4962163;29;20031;-58
2024/01/14 11:53:46;;;;;;;92.30;29.00;;;;;;;;;;4967906;29;20282;-58
2024/01/14 11:56:27;;;;;;;86.70;31.20;;;;;;;;;;4963343;29;20055;-59
2024/01/14 11:58:52;;;;;;;85.68;28.83;;;;;;;;;;4950460;29;20039;-59
2024/01/14 12:01:18;;;;;;;85.37;27.03;;;;;;;;;;4962511;29;20035;-56
2024/01/14 12:03:44;;;;;;;87.53;27.30;;;;;;;;;;4953567;29;20027;-60
2024/01/14 12:06:09;;;;;;;89.53;30.67;;;;;;;;;;4959690;29;20036;-58
2024/01/14 12:08:35;;;;;;;86.23;26.83;;;;;;;;;;4959602;29;20046;-59
2024/01/14 12:11:01;;;;;;;97.07;31.00;;;;;;;;;;4958210;29;20039;-59
2024/01/14 12:13:26;;;;;;;103.95;30.40;;;;;;;;;;4961729;29;20028;-59
2024/01/14 12:15:52;;;;;;;90.85;28.92;;;;;;;;;;4959461;29;20055;-59
2024/01/14 12:18:17;;;;;;;93.47;30.00;;;;;;;;;;4959429;29;20046;-58
2024/01/14 12:20:43;;;;;;;87.85;29.10;;;;;;;;;;4959708;29;20067;-59
2024/01/14 12:23:09;;;;;;;90.97;29.53;;;;;;;;;;4977537;29;20046;-58
2024/01/14 12:25:35;;;;;;;89.47;30.33;;;;;;;;;;4958840;29;20038;-60
2024/01/14 12:28:00;;;;;;;76.83;26.33;;;;;;;;;;4974079;29;20031;-60
2024/01/14 12:30:27;;;;;;;75.10;24.87;;;;;;;;;;4959300;29;20036;-59
2024/01/14 12:32:52;;;;;;;82.80;27.73;;;;;;;;;;4972695;29;20031;-60
2024/01/14 12:35:18;;;;;;;73.57;24.77;;;;;;;;;;4971631;29;20043;-59
2024/01/14 12:37:44;;;;;;;73.75;25.60;;;;;;;;;;4967193;29;20023;-58
2024/01/14 12:40:09;;;;;;;88.50;29.02;;;;;;;;;;4958499;29;20043;-56
2024/01/14 12:42:34;;;;;;;80.67;28.90;;;;;;;;;;4962795;29;20035;-60
2024/01/14 12:45:01;;;;;;;66.27;23.20;;;;;;;;;;4958631;29;20031;-60
2024/01/14 12:47:26;;;;;;;89.65;28.40;;;;;;;;;;4959473;29;20091;-59
2024/01/14 12:49:54;;;;;;;79.17;25.93;;;;;;;;;;4958514;29;20050;-58
2024/01/14 12:52:19;;;;;;;91.38;27.98;;;;;;;;;;4968817;29;20066;-59
2024/01/14 12:54:49;;;;;;;95.78;29.77;;;;;;;;;;4958178;29;20040;-59
2024/01/14 12:57:14;;;;;;;80.75;27.25;;;;;;;;;;4957718;29;20092;-59
2024/01/14 12:59:40;;;;;;;85.50;27.77;;;;;;;;;;4957830;29;20039;-59
2024/01/14 13:02:05;;;;;;;77.60;26.63;;;;;;;;;;4960911;29;20301;-57
2024/01/14 13:04:32;;;;;;;95.32;29.23;;;;;;;;;;4969070;29;20059;-59
2024/01/14 13:06:58;;;;;;;79.68;26.27;;;;;;;;;;4967900;29;20046;-59
2024/01/14 13:09:23;;;;;;;67.10;23.50;;;;;;;;;;4952686;29;20044;-59
2024/01/14 13:11:49;;;;;;;84.87;26.37;;;;;;;;;;4962990;29;20289;-56
2024/01/14 13:14:14;;;;;;;83.90;25.30;;;;;;;;;;4961583;29;20062;-60
2024/01/14 13:16:40;;;;;;;72.17;24.57;;;;;;;;;;4967214;29;20032;-58
2024/01/14 13:19:05;;;;;;;66.20;24.27;;;;;;;;;;4958250;29;20111;-58
2024/01/14 13:21:31;;;;;;;64.23;23.03;;;;;;;;;;4960851;29;20027;-59
2024/01/14 13:23:56;;;;;;;62.47;23.00;;;;;;;;;;4964561;29;20103;-60
2024/01/14 13:26:24;;;;;;;63.10;23.03;;;;;;;;;;4962936;28;20293;-60
2024/01/14 13:28:50;;;;;;;64.35;22.45;;;;;;;;;;4958900;29;20059;-59
2024/01/14 13:31:15;;;;;;;78.53;25.77;;;;;;;;;;4966654;29;20035;-59
2024/01/14 13:33:40;;;;;;;78.37;25.93;;;;;;;;;;4961457;29;20066;-60
2024/01/14 13:36:06;;;;;;;67.50;23.43;;;;;;;;;;4957255;29;20042;-60
2024/01/14 13:38:31;;;;;;;66.45;22.50;;;;;;;;;;4965203;29;20095;-60
2024/01/14 13:40:57;;;;;;;69.53;23.50;;;;;;;;;;4956579;29;20043;-59
2024/01/14 13:43:23;;;;;;;72.60;27.17;;;;;;;;;;4969689;29;20261;-60
2024/01/14 13:45:49;;;;;;;74.72;25.30;;;;;;;;;;4946154;29;20035;-59
2024/01/14 13:48:14;;;;;;;68.67;26.07;;;;;;;;;;4957673;29;20067;-59
2024/01/14 13:50:41;;;;;;;69.23;23.73;;;;;;;;;;4957094;29;20341;-59
2024/01/14 13:53:06;;;;;;;72.50;27.08;;;;;;;;;;4962462;29;20027;-59
2024/01/14 13:55:31;;;;;;;75.40;26.23;;;;;;;;;;4957083;29;20099;-59
2024/01/14 13:57:57;;;;;;;69.53;24.90;;;;;;;;;;4940215;29;20032;-58
2024/01/14 14:00:24;;;;;;;71.40;25.77;;;;;;;;;;4956911;29;20071;-59
2024/01/14 14:02:50;;;;;;;75.28;26.02;;;;;;;;;;4960747;29;20028;-58